Time;durP1;ratioP1;P1;durP2;ratioP2;P2;SDS_P1;SDS_P2;PMS_P1;PMS_P2;Temp;Humidity;BMP_temperature;BMP_pressure;BME280_temperature;BME280_humidity;BME280_pressure;Samples;Min_cycle;Max_cycle;Signal;HPM_P1;HPM_P2
2021/04/02 00:00:39;;;;;;;13.48;6.60;;;10.00;99.90;;;;;;5050718;28;20037;-74
2021/04/02 00:03:10;;;;;;;13.50;7.20;;;9.90;99.90;;;;;;5052133;28;20043;-74
2021/04/02 00:05:36;;;;;;;12.95;7.55;;;9.80;99.90;;;;;;5052564;28;20029;-73
2021/04/02 00:08:02;;;;;;;13.55;6.38;;;9.70;99.90;;;;;;5067603;28;20044;-73
2021/04/02 00:10:34;;;;;;;11.25;7.13;;;9.70;99.90;;;;;;5051891;28;20037;-74
2021/04/02 00:13:00;;;;;;;12.38;6.78;;;9.60;99.90;;;;;;5052125;28;20486;-73
2021/04/02 00:15:26;;;;;;;11.73;5.65;;;9.60;99.90;;;;;;5056337;28;20115;-74
2021/04/02 00:17:52;;;;;;;11.70;6.28;;;9.60;99.90;;;;;;5032777;28;20033;-74
2021/04/02 00:20:19;;;;;;;8.43;5.90;;;9.60;99.90;;;;;;5051056;28;20636;-73
2021/04/02 00:22:45;;;;;;;9.55;5.60;;;9.50;99.90;;;;;;5051465;28;20099;-74
2021/04/02 00:25:13;;;;;;;8.57;6.03;;;9.50;99.90;;;;;;5066942;28;20045;-73
2021/04/02 00:27:39;;;;;;;13.15;5.97;;;9.50;99.90;;;;;;5051075;28;20048;-73
2021/04/02 00:30:12;;;;;;;11.25;6.30;;;9.50;99.90;;;;;;5051799;28;20108;-73
2021/04/02 00:32:38;;;;;;;11.88;5.90;;;9.40;99.90;;;;;;5083044;28;20447;-73
2021/04/02 00:35:04;;;;;;;9.40;5.57;;;9.40;99.90;;;;;;5052102;28;20132;-74
2021/04/02 00:37:30;;;;;;;10.13;5.95;;;9.40;99.90;;;;;;5051593;28;20036;-73
2021/04/02 00:39:56;;;;;;;8.68;5.80;;;9.40;99.90;;;;;;5051297;28;20195;-74
2021/04/02 00:42:22;;;;;;;9.48;5.55;;;9.40;99.90;;;;;;5047716;28;20024;-73
2021/04/02 00:44:48;;;;;;;7.38;5.03;;;9.40;99.90;;;;;;5083621;28;20025;-73
2021/04/02 00:47:13;;;;;;;8.50;5.03;;;9.40;99.90;;;;;;5050785;28;20120;-73
2021/04/02 00:49:39;;;;;;;10.02;5.68;;;9.30;99.90;;;;;;5051470;28;20032;-73
2021/04/02 00:52:05;;;;;;;6.72;4.47;;;9.30;99.90;;;;;;5051260;28;20040;-73
2021/04/02 00:54:31;;;;;;;11.88;5.32;;;9.30;99.90;;;;;;5051701;28;20102;-74
2021/04/02 00:56:57;;;;;;;8.93;5.45;;;9.30;99.90;;;;;;5049727;28;20487;-73
2021/04/02 00:59:23;;;;;;;7.65;5.03;;;9.30;99.90;;;;;;5049039;28;20060;-76
2021/04/02 01:01:50;;;;;;;7.03;4.90;;;9.30;99.90;;;;;;5046525;28;20672;-73
2021/04/02 01:04:16;;;;;;;10.75;4.68;;;9.30;99.90;;;;;;5049168;28;20028;-73
2021/04/02 01:06:42;;;;;;;7.03;4.85;;;9.20;99.90;;;;;;5050845;28;20441;-74
2021/04/02 01:09:09;;;;;;;9.98;5.22;;;9.20;99.70;;;;;;5050285;28;20086;-74
2021/04/02 01:11:35;;;;;;;6.25;4.18;;;9.10;99.90;;;;;;5032609;28;20076;-74
2021/04/02 01:14:03;;;;;;;9.20;5.20;;;9.10;99.90;;;;;;5049746;28;20029;-74
2021/04/02 01:16:32;;;;;;;9.73;5.07;;;9.00;99.90;;;;;;5049210;28;20037;-73
2021/04/02 01:19:22;;;;;;;8.63;4.97;;;8.90;99.90;;;;;;5049895;28;20040;-73
2021/04/02 01:22:03;;;;;;;10.73;4.72;;;8.90;99.90;;;;;;5049379;28;20033;-74
2021/04/02 01:24:35;;;;;;;6.30;4.25;;;8.90;99.90;;;;;;5033473;28;20116;-74
2021/04/02 01:27:07;;;;;;;6.53;4.57;;;8.80;99.80;;;;;;5049323;28;20029;-74
2021/04/02 01:29:45;;;;;;;6.40;4.28;;;8.70;99.50;;;;;;5049694;28;20025;-74
2021/04/02 01:32:15;;;;;;;7.90;4.35;;;8.60;99.40;;;;;;5051095;28;20082;-73
2021/04/02 01:34:49;;;;;;;8.75;4.45;;;8.60;99.40;;;;;;5033156;28;20036;-73
2021/04/02 01:37:33;;;;;;;6.05;4.38;;;8.50;99.90;;;;;;5049131;28;20033;-74
2021/04/02 01:40:03;;;;;;;6.07;4.57;;;8.40;99.90;;;;;;5034381;28;20056;-74
2021/04/02 01:42:31;;;;;;;7.90;4.47;;;8.40;99.90;;;;;;5049535;28;20078;-74
2021/04/02 01:44:59;;;;;;;6.05;4.40;;;8.40;99.90;;;;;;5050014;28;20029;-74
2021/04/02 01:47:26;;;;;;;6.22;4.32;;;8.40;99.90;;;;;;5046364;28;20029;-74
2021/04/02 01:49:54;;;;;;;6.20;4.40;;;8.30;99.90;;;;;;5050577;28;20013;-74
2021/04/02 01:52:23;;;;;;;6.28;4.05;;;8.30;99.80;;;;;;5048785;28;20029;-74
2021/04/02 01:54:51;;;;;;;6.50;4.00;;;8.30;99.90;;;;;;5049361;28;20037;-75
2021/04/02 01:57:18;;;;;;;6.85;4.35;;;8.30;99.90;;;;;;5048716;28;20036;-75
2021/04/02 01:59:48;;;;;;;5.82;3.80;;;8.30;99.90;;;;;;5032317;28;20032;-74
2021/04/02 02:02:17;;;;;;;5.25;3.33;;;8.30;99.90;;;;;;5047951;28;20500;-74
2021/04/02 02:04:45;;;;;;;5.00;3.65;;;8.20;99.90;;;;;;5050580;28;20032;-74
2021/04/02 02:07:13;;;;;;;6.20;3.13;;;8.20;99.90;;;;;;5049916;28;20484;-74
2021/04/02 02:09:53;;;;;;;5.07;3.20;;;8.20;99.90;;;;;;5050164;28;20036;-75
2021/04/02 02:12:28;;;;;;;5.20;3.15;;;8.20;99.90;;;;;;5048386;28;20042;-74
2021/04/02 02:14:59;;;;;;;5.82;2.90;;;8.10;99.90;;;;;;5048851;28;20492;-74
2021/04/02 02:17:31;;;;;;;4.95;2.30;;;8.10;99.50;;;;;;5080248;28;20037;-74
2021/04/02 02:20:04;;;;;;;3.65;2.72;;;8.00;99.90;;;;;;5048665;28;20587;-74
2021/04/02 02:22:31;;;;;;;3.15;2.75;;;8.00;99.90;;;;;;5048375;28;20032;-74
2021/04/02 02:25:05;;;;;;;2.83;2.42;;;8.00;99.80;;;;;;5048868;28;20171;-75
2021/04/02 02:27:35;;;;;;;4.28;2.33;;;7.90;99.90;;;;;;5048393;28;20033;-75
2021/04/02 02:30:01;;;;;;;3.85;2.72;;;7.90;99.90;;;;;;5047328;28;20025;-73
2021/04/02 02:32:29;;;;;;;2.85;2.17;;;7.90;99.90;;;;;;5047229;28;20044;-73
2021/04/02 02:34:55;;;;;;;4.00;2.40;;;7.90;99.90;;;;;;5031896;28;20040;-73
2021/04/02 02:37:22;;;;;;;2.13;1.92;;;7.90;99.90;;;;;;5049471;28;20040;-73
2021/04/02 02:39:52;;;;;;;2.70;2.40;;;7.90;99.90;;;;;;5048588;28;20083;-73
2021/04/02 02:42:18;;;;;;;2.47;1.77;;;7.90;99.90;;;;;;5047632;28;20561;-74
2021/04/02 02:44:47;;;;;;;2.17;1.67;;;7.90;99.90;;;;;;5048662;28;20094;-73
2021/04/02 02:47:12;;;;;;;2.10;1.83;;;7.90;99.90;;;;;;5048049;28;20503;-77
2021/04/02 02:49:47;;;;;;;2.47;1.98;;;7.90;99.90;;;;;;5048810;28;20102;-74
2021/04/02 02:52:14;;;;;;;1.92;1.65;;;7.90;99.90;;;;;;5081508;28;20110;-76
2021/04/02 02:54:42;;;;;;;2.72;1.80;;;7.90;99.90;;;;;;5047497;28;20499;-74
2021/04/02 02:57:09;;;;;;;1.65;1.50;;;7.90;99.90;;;;;;5081224;28;20061;-73
2021/04/02 02:59:38;;;;;;;4.10;1.63;;;7.90;99.90;;;;;;5048440;28;20114;-74
2021/04/02 03:02:10;;;;;;;3.70;1.77;;;7.90;99.90;;;;;;5081189;28;20025;-75
2021/04/02 03:04:38;;;;;;;2.03;1.80;;;7.80;99.90;;;;;;5081913;28;20029;-74
2021/04/02 03:07:07;;;;;;;2.00;1.55;;;7.80;99.90;;;;;;5081431;28;20124;-76
2021/04/02 03:09:37;;;;;;;2.03;1.65;;;7.80;99.90;;;;;;5081777;28;20028;-76
2021/04/02 03:12:04;;;;;;;2.80;1.70;;;7.90;99.90;;;;;;5048486;28;20049;-74
2021/04/02 03:14:34;;;;;;;3.05;2.25;;;7.90;99.90;;;;;;5049633;28;20025;-76
2021/04/02 03:17:07;;;;;;;3.33;2.42;;;7.90;99.90;;;;;;5063681;28;20552;-76
2021/04/02 03:19:38;;;;;;;3.85;2.50;;;7.90;99.90;;;;;;5049779;28;20033;-76
2021/04/02 03:22:11;;;;;;;3.17;2.55;;;7.80;99.90;;;;;;5047448;28;20116;-75
2021/04/02 03:24:53;;;;;;;4.65;2.55;;;7.80;99.90;;;;;;5048391;28;20522;-74
2021/04/02 03:27:30;;;;;;;3.75;2.67;;;7.80;99.90;;;;;;5032769;28;20110;-73
2021/04/02 03:29:56;;;;;;;5.07;2.25;;;7.70;99.90;;;;;;5031671;28;20033;-73
2021/04/02 03:32:26;;;;;;;4.50;2.65;;;7.70;99.90;;;;;;5050161;28;20406;-73
2021/04/02 03:34:55;;;;;;;4.80;2.92;;;7.70;99.90;;;;;;5085565;28;20440;-73
2021/04/02 03:37:22;;;;;;;4.75;2.63;;;7.70;99.90;;;;;;5051582;28;20043;-73
2021/04/02 03:39:57;;;;;;;5.00;2.63;;;7.70;99.90;;;;;;5051693;28;20044;-74
2021/04/02 03:42:26;;;;;;;5.45;3.17;;;7.70;99.90;;;;;;5084091;28;20025;-73
2021/04/02 03:44:52;;;;;;;4.70;3.00;;;7.60;99.90;;;;;;5051714;28;20079;-74
2021/04/02 03:47:20;;;;;;;3.70;2.53;;;7.60;99.90;;;;;;5051393;28;20427;-73
2021/04/02 03:49:53;;;;;;;4.68;2.83;;;7.50;99.90;;;;;;5051901;28;20017;-73
2021/04/02 03:52:30;;;;;;;5.40;2.97;;;7.50;99.90;;;;;;5050650;28;20044;-73
2021/04/02 03:54:57;;;;;;;4.05;2.47;;;7.40;99.90;;;;;;5051526;28;20031;-73
2021/04/02 03:57:25;;;;;;;4.38;2.63;;;7.30;99.90;;;;;;5050848;28;20067;-73
2021/04/02 03:59:54;;;;;;;5.78;2.85;;;7.30;99.90;;;;;;5052530;28;20024;-73
2021/04/02 04:02:20;;;;;;;4.07;2.80;;;7.30;99.90;;;;;;5050756;28;20653;-73
2021/04/02 04:04:51;;;;;;;6.53;3.38;;;7.20;99.90;;;;;;5051158;28;20495;-73
2021/04/02 04:07:18;;;;;;;3.28;2.40;;;7.30;99.90;;;;;;5051939;28;20128;-73
2021/04/02 04:09:48;;;;;;;4.15;3.22;;;7.20;99.90;;;;;;5050770;28;20013;-73
2021/04/02 04:12:18;;;;;;;3.97;2.72;;;7.20;99.90;;;;;;5050383;28;20500;-73
2021/04/02 04:14:53;;;;;;;4.35;2.80;;;7.20;99.90;;;;;;5035491;28;20040;-73
2021/04/02 04:17:25;;;;;;;4.90;3.20;;;7.20;99.90;;;;;;5051850;28;20033;-73
2021/04/02 04:19:58;;;;;;;4.28;2.63;;;7.20;99.90;;;;;;5051161;28;20048;-73
2021/04/02 04:22:28;;;;;;;4.05;2.58;;;7.10;99.90;;;;;;5051405;28;20033;-74
2021/04/02 04:24:55;;;;;;;5.07;2.95;;;7.10;99.90;;;;;;5051038;28;20488;-74
2021/04/02 04:27:24;;;;;;;4.10;2.60;;;7.10;99.90;;;;;;5050458;28;20033;-73
2021/04/02 04:29:52;;;;;;;3.83;2.58;;;7.10;99.90;;;;;;5051979;28;20429;-73
2021/04/02 04:32:20;;;;;;;5.95;3.35;;;7.10;99.90;;;;;;5051176;28;20035;-74
2021/04/02 04:34:48;;;;;;;4.35;2.63;;;7.20;99.90;;;;;;5052005;28;20044;-74
2021/04/02 04:37:19;;;;;;;4.22;2.70;;;7.20;99.90;;;;;;5050866;28;20029;-73
2021/04/02 04:39:48;;;;;;;4.25;2.70;;;7.20;99.90;;;;;;5051803;28;20029;-74
2021/04/02 04:42:16;;;;;;;5.47;2.97;;;7.20;99.90;;;;;;5050799;28;20048;-74
2021/04/02 04:44:45;;;;;;;5.15;2.67;;;7.20;99.90;;;;;;5051790;28;20431;-74
2021/04/02 04:47:11;;;;;;;5.50;3.40;;;7.20;99.90;;;;;;5051158;28;20116;-74
2021/04/02 04:49:37;;;;;;;4.97;3.03;;;7.10;99.90;;;;;;5084097;28;20037;-73
2021/04/02 04:52:06;;;;;;;3.67;2.92;;;7.10;99.90;;;;;;5051038;28;20033;-75
2021/04/02 04:54:33;;;;;;;3.65;2.38;;;7.10;99.90;;;;;;5049498;28;20079;-74
2021/04/02 04:56:59;;;;;;;4.03;2.58;;;7.10;99.90;;;;;;5049335;28;20037;-74
2021/04/02 04:59:28;;;;;;;4.68;2.85;;;7.10;99.90;;;;;;5051151;28;20033;-73
2021/04/02 05:01:55;;;;;;;4.10;2.40;;;7.10;99.90;;;;;;5050682;28;20630;-74
2021/04/02 05:04:24;;;;;;;4.43;2.83;;;7.00;99.90;;;;;;5053969;28;20583;-74
2021/04/02 05:06:55;;;;;;;3.53;2.22;;;7.00;99.90;;;;;;5050665;28;20147;-74
2021/04/02 05:09:24;;;;;;;3.50;2.30;;;7.00;99.90;;;;;;5050716;28;20017;-74
2021/04/02 05:11:51;;;;;;;3.95;2.42;;;7.00;99.90;;;;;;5050608;28;20044;-73
2021/04/02 05:14:18;;;;;;;4.35;2.13;;;7.10;99.90;;;;;;5083715;28;20082;-73
2021/04/02 05:16:45;;;;;;;3.53;2.20;;;7.00;99.90;;;;;;5050676;28;20414;-73
2021/04/02 05:19:15;;;;;;;2.80;2.17;;;6.90;99.90;;;;;;5049840;28;20136;-73
2021/04/02 05:21:43;;;;;;;3.28;2.08;;;6.90;99.90;;;;;;5082013;28;20120;-73
2021/04/02 05:24:09;;;;;;;1.95;1.50;;;6.90;99.90;;;;;;5050991;28;20025;-73
2021/04/02 05:26:35;;;;;;;2.60;1.60;;;6.90;99.90;;;;;;5050711;28;20564;-73
2021/04/02 05:29:01;;;;;;;2.63;1.98;;;7.00;99.90;;;;;;5050923;28;20117;-73
2021/04/02 05:31:27;;;;;;;2.58;1.83;;;7.00;99.90;;;;;;5050257;28;20139;-74
2021/04/02 05:33:53;;;;;;;2.92;1.80;;;7.10;99.90;;;;;;5050053;28;20033;-74
2021/04/02 05:36:18;;;;;;;2.42;1.90;;;7.10;99.90;;;;;;5049595;28;20029;-74
2021/04/02 05:38:44;;;;;;;2.60;1.83;;;7.10;99.90;;;;;;5050188;28;20060;-74
2021/04/02 05:41:17;;;;;;;2.47;1.55;;;7.10;99.90;;;;;;5049807;28;20079;-74
2021/04/02 05:43:48;;;;;;;2.90;1.65;;;7.10;99.90;;;;;;5050704;28;20044;-74
2021/04/02 05:46:15;;;;;;;2.38;1.90;;;7.10;99.90;;;;;;5050205;28;20506;-74
2021/04/02 05:48:45;;;;;;;2.78;2.13;;;7.10;99.90;;;;;;5050761;28;20439;-75
2021/04/02 05:51:12;;;;;;;2.88;2.03;;;7.20;99.90;;;;;;5049422;28;20039;-74
2021/04/02 05:53:39;;;;;;;2.13;1.70;;;7.20;99.90;;;;;;5049934;28;20033;-73
2021/04/02 05:56:05;;;;;;;2.65;1.70;;;7.20;99.90;;;;;;5050620;28;20033;-73
2021/04/02 05:58:31;;;;;;;3.30;2.17;;;7.20;99.90;;;;;;5049890;28;20047;-74
2021/04/02 06:00:58;;;;;;;2.42;1.92;;;7.30;99.90;;;;;;5049788;28;20443;-73
2021/04/02 06:03:24;;;;;;;3.28;1.98;;;7.30;99.90;;;;;;5049646;28;20029;-74
2021/04/02 06:05:50;;;;;;;2.28;1.67;;;7.30;99.90;;;;;;5082178;28;20029;-74
2021/04/02 06:08:18;;;;;;;3.50;2.20;;;7.30;99.90;;;;;;5038548;28;20037;-73
2021/04/02 06:10:44;;;;;;;3.30;1.92;;;7.30;99.90;;;;;;5044507;28;20037;-73
2021/04/02 06:13:10;;;;;;;2.72;2.13;;;7.20;99.90;;;;;;5058187;28;20032;-73
2021/04/02 06:15:36;;;;;;;3.50;1.90;;;7.20;99.90;;;;;;5070328;28;20043;-73
2021/04/02 06:18:10;;;;;;;3.72;2.03;;;7.30;99.90;;;;;;5069901;28;20036;-73
2021/04/02 06:20:38;;;;;;;2.25;1.50;;;7.30;99.90;;;;;;5069634;28;20062;-73
2021/04/02 06:23:05;;;;;;;2.05;1.77;;;7.40;99.90;;;;;;5061803;28;20495;-73
2021/04/02 06:25:31;;;;;;;3.33;2.15;;;7.40;99.90;;;;;;5050359;28;20231;-72
2021/04/02 06:27:56;;;;;;;3.15;1.63;;;7.30;99.90;;;;;;5049410;28;20017;-73
2021/04/02 06:30:26;;;;;;;3.03;1.90;;;7.40;99.90;;;;;;5049425;28;20103;-74
2021/04/02 06:32:52;;;;;;;3.22;1.98;;;7.40;99.90;;;;;;5055740;28;20150;-74
2021/04/02 06:35:17;;;;;;;3.35;1.75;;;7.40;99.90;;;;;;5061524;28;20496;-72
2021/04/02 06:37:45;;;;;;;3.97;2.22;;;7.40;99.90;;;;;;5058229;28;20170;-74
2021/04/02 06:40:19;;;;;;;2.45;1.80;;;7.40;99.90;;;;;;5058795;28;20425;-74
2021/04/02 06:42:45;;;;;;;3.83;1.98;;;7.50;99.90;;;;;;5056160;28;20044;-74
2021/04/02 06:45:12;;;;;;;2.75;1.80;;;7.50;99.90;;;;;;5043052;28;20040;-74
2021/04/02 06:47:40;;;;;;;2.42;1.80;;;7.50;99.90;;;;;;5055907;28;20549;-74
2021/04/02 06:50:15;;;;;;;2.70;2.05;;;7.50;99.90;;;;;;5059376;28;20487;-74
2021/04/02 06:52:41;;;;;;;3.50;1.85;;;7.50;99.90;;;;;;5031891;28;20403;-74
2021/04/02 06:55:11;;;;;;;2.95;1.90;;;7.50;99.90;;;;;;5052054;28;20410;-74
2021/04/02 06:57:37;;;;;;;3.35;2.00;;;7.60;99.90;;;;;;5056343;28;20035;-74
2021/04/02 07:00:04;;;;;;;3.50;2.10;;;7.60;99.90;;;;;;5056680;28;20045;-74
2021/04/02 07:02:32;;;;;;;4.15;2.00;;;7.50;99.90;;;;;;5058107;28;20029;-73
2021/04/02 07:05:00;;;;;;;3.75;1.92;;;7.60;99.90;;;;;;5058850;28;20403;-73
2021/04/02 07:07:27;;;;;;;3.45;1.92;;;7.60;99.90;;;;;;5057351;28;20547;-74
2021/04/02 07:09:55;;;;;;;3.15;2.10;;;7.60;99.90;;;;;;5064127;28;20025;-74
2021/04/02 07:12:21;;;;;;;4.63;2.42;;;7.70;99.90;;;;;;5060278;28;20483;-73
2021/04/02 07:14:47;;;;;;;3.55;2.00;;;7.70;99.90;;;;;;5062155;28;20040;-74
2021/04/02 07:17:14;;;;;;;2.55;1.63;;;7.70;99.90;;;;;;5061797;28;20098;-73
2021/04/02 07:19:42;;;;;;;2.63;1.88;;;7.70;99.90;;;;;;5057626;28;20063;-74
2021/04/02 07:22:08;;;;;;;2.67;1.88;;;7.60;99.90;;;;;;5072374;28;20128;-75
2021/04/02 07:24:35;;;;;;;1.80;1.48;;;7.60;99.90;;;;;;5062007;28;20048;-73
2021/04/02 07:27:01;;;;;;;3.40;1.80;;;7.60;99.90;;;;;;5055975;28;20031;-74
2021/04/02 07:29:27;;;;;;;2.97;1.70;;;7.60;99.90;;;;;;5054219;28;20021;-74
2021/04/02 07:31:54;;;;;;;2.70;1.50;;;7.60;99.90;;;;;;5066272;28;20112;-73
2021/04/02 07:34:21;;;;;;;3.38;1.85;;;7.60;99.90;;;;;;5052690;28;20033;-75
2021/04/02 07:36:48;;;;;;;2.50;1.60;;;7.60;99.90;;;;;;5050481;28;20479;-73
2021/04/02 07:39:16;;;;;;;2.65;1.30;;;7.70;99.90;;;;;;5051642;28;20083;-73
2021/04/02 07:41:52;;;;;;;1.88;1.25;;;7.70;99.90;;;;;;5051590;28;20041;-74
2021/04/02 07:44:19;;;;;;;1.80;1.38;;;7.70;99.90;;;;;;5058012;28;20031;-74
2021/04/02 07:47:10;;;;;;;1.45;1.00;;;7.80;99.90;;;;;;5058943;28;20028;-74
2021/04/02 07:49:57;;;;;;;1.90;1.42;;;7.80;99.90;;;;;;5057110;28;20375;-74
2021/04/02 07:52:35;;;;;;;2.22;1.25;;;7.80;99.90;;;;;;5055227;28;20082;-73
2021/04/02 07:55:05;;;;;;;1.33;1.00;;;7.70;99.90;;;;;;5050923;28;20028;-76
2021/04/02 07:57:55;;;;;;;1.77;1.00;;;7.70;99.90;;;;;;5083385;28;20472;-74
2021/04/02 08:00:25;;;;;;;1.60;1.00;;;7.80;99.90;;;;;;5056746;28;20081;-74
2021/04/02 08:03:13;;;;;;;1.50;1.10;;;7.70;99.90;;;;;;5062919;28;20380;-74
2021/04/02 08:06:05;;;;;;;2.45;1.13;;;7.80;99.90;;;;;;5062311;28;20033;-75
2021/04/02 08:08:41;;;;;;;1.33;0.90;;;7.90;99.90;;;;;;5051457;28;20036;-74
2021/04/02 08:11:28;;;;;;;2.35;1.30;;;7.90;99.90;;;;;;5050810;28;20595;-75
2021/04/02 08:14:12;;;;;;;2.17;1.30;;;8.00;99.90;;;;;;5065654;28;20033;-74
2021/04/02 08:16:53;;;;;;;1.55;1.00;;;8.20;99.90;;;;;;5054152;28;20218;-74
2021/04/02 08:19:33;;;;;;;3.97;1.65;;;8.30;99.90;;;;;;5061387;28;20025;-73
2021/04/02 08:22:05;;;;;;;2.33;1.25;;;8.50;99.90;;;;;;5058758;28;20056;-73
2021/04/02 08:24:36;;;;;;;1.95;1.13;;;8.50;99.90;;;;;;5061918;28;20044;-74
2021/04/02 08:27:03;;;;;;;1.17;1.00;;;8.60;99.90;;;;;;5053011;28;20036;-74
2021/04/02 08:29:30;;;;;;;2.15;1.15;;;8.60;99.90;;;;;;5059379;28;20023;-73
2021/04/02 08:31:58;;;;;;;2.00;1.10;;;8.70;99.90;;;;;;5059358;28;20132;-74
2021/04/02 08:34:27;;;;;;;2.00;1.25;;;8.80;99.90;;;;;;5056451;28;20024;-74
2021/04/02 08:36:58;;;;;;;2.03;0.90;;;8.90;99.90;;;;;;5056434;28;20036;-74
2021/04/02 08:39:24;;;;;;;1.58;1.15;;;8.90;99.90;;;;;;5056901;28;20061;-74
2021/04/02 08:42:00;;;;;;;1.10;0.90;;;8.90;99.90;;;;;;5058326;28;20059;-74
2021/04/02 08:44:31;;;;;;;2.30;1.23;;;9.10;99.90;;;;;;5060179;28;20075;-74
2021/04/02 08:46:59;;;;;;;1.65;1.20;;;9.20;99.90;;;;;;5057997;28;20029;-74
2021/04/02 08:49:25;;;;;;;1.92;1.08;;;9.30;99.90;;;;;;5054904;28;20068;-73
2021/04/02 08:51:51;;;;;;;2.40;1.33;;;9.30;99.90;;;;;;5058112;28;20033;-74
2021/04/02 08:54:19;;;;;;;1.33;0.88;;;9.40;99.90;;;;;;5058448;28;20081;-74
2021/04/02 08:56:47;;;;;;;1.83;1.13;;;9.40;99.90;;;;;;5056733;28;20037;-74
2021/04/02 08:59:13;;;;;;;1.70;1.13;;;9.40;99.90;;;;;;5054109;28;20416;-74
2021/04/02 09:01:50;;;;;;;2.33;1.27;;;9.40;99.90;;;;;;5059204;28;20024;-74
2021/04/02 09:04:18;;;;;;;1.60;1.02;;;9.40;99.90;;;;;;5060566;28;20672;-74
2021/04/02 09:06:45;;;;;;;1.88;1.05;;;9.40;99.90;;;;;;5057095;28;20021;-74
2021/04/02 09:09:19;;;;;;;1.52;0.90;;;9.40;99.90;;;;;;5056351;28;20024;-74
2021/04/02 09:11:50;;;;;;;1.40;0.85;;;9.50;99.90;;;;;;5057621;28;20024;-73
2021/04/02 09:14:16;;;;;;;1.17;0.90;;;9.40;99.90;;;;;;5056542;28;20025;-74
2021/04/02 09:16:44;;;;;;;1.30;0.90;;;9.50;99.90;;;;;;5056094;28;20152;-73
2021/04/02 09:19:11;;;;;;;1.88;0.88;;;9.50;99.90;;;;;;5058551;28;20524;-74
2021/04/02 09:21:37;;;;;;;1.48;1.10;;;9.50;99.90;;;;;;5055207;28;20198;-74
2021/04/02 09:24:04;;;;;;;1.45;0.82;;;9.40;99.90;;;;;;5059313;28;20555;-74
2021/04/02 09:26:40;;;;;;;2.58;1.05;;;9.50;99.90;;;;;;5059983;28;20075;-74
2021/04/02 09:29:06;;;;;;;1.13;0.90;;;9.50;99.90;;;;;;5062459;28;20063;-74
2021/04/02 09:31:34;;;;;;;2.50;0.90;;;9.50;99.90;;;;;;5054524;28;20426;-73
2021/04/02 09:34:04;;;;;;;1.38;0.98;;;9.50;99.90;;;;;;5052149;28;20024;-75
2021/04/02 09:36:33;;;;;;;1.17;0.82;;;9.50;99.90;;;;;;5055836;28;20017;-73
2021/04/02 09:39:13;;;;;;;0.90;0.70;;;9.40;99.90;;;;;;5059096;28;20059;-74
2021/04/02 09:42:03;;;;;;;1.15;0.63;;;9.30;99.90;;;;;;5080584;28;20029;-73
2021/04/02 09:44:39;;;;;;;1.20;0.80;;;9.20;99.90;;;;;;5048255;28;20029;-73
2021/04/02 09:47:12;;;;;;;0.90;0.70;;;9.10;99.90;;;;;;5054259;28;20043;-73
2021/04/02 09:49:38;;;;;;;0.95;0.60;;;9.10;99.90;;;;;;5051936;28;21687;-73
2021/04/02 09:52:05;;;;;;;1.00;0.55;;;9.20;99.90;;;;;;5055008;28;20033;-73
2021/04/02 09:54:32;;;;;;;2.42;0.63;;;9.20;99.90;;;;;;5054683;28;20044;-73
2021/04/02 09:57:00;;;;;;;0.93;0.70;;;9.20;99.90;;;;;;5059203;28;20025;-72
2021/04/02 09:59:26;;;;;;;0.75;0.50;;;9.30;99.90;;;;;;5057982;28;20061;-73
2021/04/02 10:01:52;;;;;;;0.93;0.70;;;9.40;99.90;;;;;;5055426;28;20654;-74
2021/04/02 10:04:19;;;;;;;0.70;0.60;;;9.60;99.90;;;;;;5057035;28;20068;-72
2021/04/02 10:06:45;;;;;;;0.88;0.50;;;9.90;99.30;;;;;;5054066;28;20103;-75
2021/04/02 10:09:11;;;;;;;1.30;0.52;;;10.10;98.10;;;;;;5054354;28;20020;-74
2021/04/02 10:11:39;;;;;;;0.65;0.40;;;10.30;96.40;;;;;;5053831;28;20092;-73
2021/04/02 10:14:05;;;;;;;0.98;0.50;;;10.40;97.30;;;;;;5053327;28;20028;-72
2021/04/02 10:16:32;;;;;;;1.63;0.75;;;10.40;97.10;;;;;;5046232;28;20086;-73
2021/04/02 10:18:58;;;;;;;1.10;0.70;;;10.40;96.10;;;;;;5051834;28;20391;-75
2021/04/02 10:21:24;;;;;;;1.55;0.98;;;10.30;96.40;;;;;;5058469;28;20024;-75
2021/04/02 10:23:52;;;;;;;1.52;1.10;;;10.20;96.00;;;;;;5049279;28;20710;-73
2021/04/02 10:26:18;;;;;;;1.30;0.75;;;10.10;96.00;;;;;;5054830;28;20116;-73
2021/04/02 10:28:44;;;;;;;1.10;0.90;;;10.10;96.80;;;;;;5053805;28;20075;-73
2021/04/02 10:31:11;;;;;;;1.63;0.90;;;10.10;97.40;;;;;;5055583;28;20813;-74
2021/04/02 10:33:37;;;;;;;1.75;0.98;;;10.20;96.00;;;;;;5046402;28;20040;-73
2021/04/02 10:36:04;;;;;;;1.27;0.80;;;10.20;95.50;;;;;;5046638;28;20032;-72
2021/04/02 10:38:30;;;;;;;1.20;0.80;;;10.20;96.40;;;;;;5040398;28;20108;-73
2021/04/02 10:40:56;;;;;;;3.35;1.20;;;10.20;96.00;;;;;;5044845;28;20178;-73
2021/04/02 10:43:22;;;;;;;1.67;1.00;;;10.20;94.80;;;;;;5051923;28;20036;-72
2021/04/02 10:45:48;;;;;;;0.90;0.60;;;10.20;94.50;;;;;;5052161;28;20683;-73
2021/04/02 10:48:15;;;;;;;3.05;1.00;;;10.20;95.00;;;;;;5057932;28;20021;-72
2021/04/02 10:50:42;;;;;;;1.40;0.70;;;10.20;94.10;;;;;;5060705;28;20024;-73
2021/04/02 10:53:09;;;;;;;1.40;0.90;;;10.20;94.60;;;;;;5058858;28;20503;-72
2021/04/02 10:55:34;;;;;;;1.27;0.80;;;10.30;93.80;;;;;;5062868;28;20211;-74
2021/04/02 10:58:02;;;;;;;1.55;0.80;;;10.40;94.00;;;;;;5064196;28;20037;-72
2021/04/02 11:00:27;;;;;;;1.23;0.70;;;10.40;94.10;;;;;;5053130;28;20394;-72
2021/04/02 11:02:53;;;;;;;1.27;0.90;;;10.50;94.80;;;;;;5054621;28;20033;-73
2021/04/02 11:05:19;;;;;;;1.00;0.85;;;10.60;94.10;;;;;;5058575;28;20032;-73
2021/04/02 11:07:45;;;;;;;1.65;0.95;;;10.80;94.00;;;;;;5056015;28;20479;-72
2021/04/02 11:10:13;;;;;;;1.77;1.00;;;10.80;92.50;;;;;;5048024;28;20075;-73
2021/04/02 11:12:39;;;;;;;1.05;0.80;;;10.80;93.10;;;;;;5049542;28;20033;-72
2021/04/02 11:15:07;;;;;;;1.63;1.42;;;10.80;93.10;;;;;;5053146;28;20139;-74
2021/04/02 11:17:33;;;;;;;1.67;0.55;;;10.90;92.40;;;;;;5088071;28;20025;-72
2021/04/02 11:19:59;;;;;;;1.58;0.98;;;11.00;92.60;;;;;;5059702;28;20102;-72
2021/04/02 11:22:25;;;;;;;2.45;1.13;;;11.10;93.00;;;;;;5090522;28;20094;-72
2021/04/02 11:24:52;;;;;;;0.80;0.70;;;11.30;91.20;;;;;;5058583;28;20037;-72
2021/04/02 11:27:19;;;;;;;1.05;0.70;;;11.50;92.70;;;;;;5058164;28;20028;-74
2021/04/02 11:29:45;;;;;;;1.55;1.05;;;11.50;89.70;;;;;;5061737;28;20044;-73
2021/04/02 11:32:11;;;;;;;2.08;0.93;;;11.50;90.20;;;;;;5054803;28;20033;-72
2021/04/02 11:34:38;;;;;;;0.80;0.65;;;11.40;86.40;;;;;;5049260;28;20040;-72
2021/04/02 11:37:06;;;;;;;2.60;1.35;;;11.30;88.30;;;;;;5051233;28;20541;-72
2021/04/02 11:39:33;;;;;;;1.10;0.85;;;11.40;89.60;;;;;;5053488;28;20025;-72
2021/04/02 11:41:59;;;;;;;1.10;1.00;;;11.50;87.70;;;;;;5055180;28;20033;-72
2021/04/02 11:44:25;;;;;;;1.35;0.90;;;11.50;87.20;;;;;;5054189;28;20495;-72
2021/04/02 11:46:52;;;;;;;2.08;1.20;;;11.40;85.30;;;;;;5053268;28;20025;-72
2021/04/02 11:49:18;;;;;;;1.95;1.17;;;11.30;88.10;;;;;;5061261;28;20747;-72
2021/04/02 11:51:44;;;;;;;1.85;1.20;;;11.30;90.20;;;;;;5057702;28;20515;-72
2021/04/02 11:54:10;;;;;;;1.67;1.20;;;11.50;86.60;;;;;;5057572;28;20093;-72
2021/04/02 11:56:35;;;;;;;1.73;1.33;;;11.60;90.40;;;;;;5060654;28;20517;-72
2021/04/02 11:59:01;;;;;;;1.77;1.20;;;11.80;89.00;;;;;;5062875;28;20029;-72
2021/04/02 12:01:27;;;;;;;1.92;1.27;;;12.00;86.80;;;;;;5058097;28;20029;-72
2021/04/02 12:03:52;;;;;;;2.17;1.52;;;12.20;85.40;;;;;;5060810;28;20029;-73
2021/04/02 12:06:18;;;;;;;1.85;1.52;;;12.30;83.60;;;;;;5064360;28;20032;-73
2021/04/02 12:08:44;;;;;;;3.13;1.63;;;12.40;85.40;;;;;;5066710;28;20099;-73
2021/04/02 12:11:10;;;;;;;1.98;1.55;;;12.50;82.70;;;;;;5059090;28;20032;-73
2021/04/02 12:13:36;;;;;;;2.17;1.52;;;12.40;80.60;;;;;;5062076;28;20029;-73
2021/04/02 12:16:02;;;;;;;1.73;1.42;;;12.30;83.80;;;;;;5060083;28;20132;-73
2021/04/02 12:18:28;;;;;;;2.17;1.58;;;12.40;82.60;;;;;;5093536;28;20044;-73
2021/04/02 12:20:54;;;;;;;1.90;1.38;;;12.50;82.70;;;;;;5052234;28;20037;-73
2021/04/02 12:23:20;;;;;;;2.47;1.60;;;12.50;83.80;;;;;;5049515;28;20040;-73
2021/04/02 12:25:46;;;;;;;1.58;1.38;;;12.80;83.80;;;;;;5051666;28;20017;-73
2021/04/02 12:28:12;;;;;;;1.85;1.15;;;13.20;79.80;;;;;;5051285;28;20100;-72
2021/04/02 12:30:38;;;;;;;2.17;1.70;;;13.40;77.10;;;;;;5051091;28;20609;-73
2021/04/02 12:33:04;;;;;;;1.95;1.77;;;13.30;76.80;;;;;;5050544;28;20430;-73
2021/04/02 12:35:30;;;;;;;1.95;1.40;;;13.30;77.30;;;;;;5054544;28;20491;-73
2021/04/02 12:37:56;;;;;;;2.60;1.70;;;13.40;79.10;;;;;;5055104;28;20155;-73
2021/04/02 12:40:23;;;;;;;2.47;2.28;;;13.60;79.30;;;;;;5058208;28;20536;-73
2021/04/02 12:42:49;;;;;;;3.58;1.95;;;13.60;73.20;;;;;;5057058;28;20020;-73
2021/04/02 12:45:16;;;;;;;2.25;2.00;;;13.70;77.20;;;;;;5053568;28;20029;-74
2021/04/02 12:47:43;;;;;;;2.30;2.00;;;13.90;75.70;;;;;;5055672;28;20065;-73
2021/04/02 12:50:15;;;;;;;2.15;1.95;;;14.10;73.70;;;;;;5058115;28;20116;-73
2021/04/02 12:52:41;;;;;;;2.45;1.98;;;14.40;72.30;;;;;;5053710;28;20025;-73
2021/04/02 12:55:09;;;;;;;2.67;2.10;;;14.30;71.10;;;;;;5054563;28;20418;-73
2021/04/02 12:57:35;;;;;;;2.22;2.03;;;14.40;72.20;;;;;;5047214;28;20048;-73
2021/04/02 13:00:01;;;;;;;2.20;1.98;;;14.60;70.10;;;;;;5045485;28;20476;-73
2021/04/02 13:02:26;;;;;;;1.80;1.70;;;14.90;68.70;;;;;;5051616;28;20056;-73